Time;durP1;ratioP1;P1;durP2;ratioP2;P2;SDS_P1;SDS_P2;PMS_P1;PMS_P2;Temp;Humidity;BMP_temperature;BMP_pressure;BME280_temperature;BME280_humidity;BME280_pressure;Samples;Min_cycle;Max_cycle;Signal;HPM_P1;HPM_P2
2023/08/23 00:08:36;;;;;;;1.20;0.70;;;;;;;20.62;88.85;101710.19;21238385;27;20054;-71
2023/08/23 00:18:38;;;;;;;0.93;0.90;;;;;;;20.58;88.57;101721.28;21249340;27;20413;-71
2023/08/23 00:28:40;;;;;;;1.48;0.80;;;;;;;20.56;88.36;101717.84;21240491;27;20043;-71
2023/08/23 00:38:42;;;;;;;0.73;0.73;;;;;;;20.52;87.92;101705.56;21186852;27;20061;-71
2023/08/23 00:48:44;;;;;;;1.20;0.65;;;;;;;20.51;87.83;101709.25;21182413;27;20498;-71
2023/08/23 00:58:47;;;;;;;0.80;0.70;;;;;;;20.48;87.71;101703.28;21220359;27;20055;-71
2023/08/23 01:09:03;;;;;;;1.25;0.93;;;;;;;20.47;87.47;101707.81;21183882;27;20387;-71
2023/08/23 01:19:38;;;;;;;1.17;0.90;;;;;;;20.46;87.13;101699.84;21231443;27;20143;-71
2023/08/23 01:29:39;;;;;;;0.80;0.77;;;;;;;20.42;86.96;101710.94;21216864;27;20411;-71
2023/08/23 01:39:41;;;;;;;1.08;0.88;;;;;;;20.39;86.57;101694.97;21177576;27;20510;-71
2023/08/23 01:49:44;;;;;;;0.85;0.70;;;;;;;20.39;86.15;101700.38;21182689;27;20503;-71
2023/08/23 01:59:47;;;;;;;0.80;0.80;;;;;;;20.37;86.14;101707.78;21191976;27;20057;-71
2023/08/23 02:09:49;;;;;;;1.20;0.90;;;;;;;20.35;85.70;101692.66;21214510;27;20062;-71
2023/08/23 02:19:50;;;;;;;2.10;0.90;;;;;;;20.33;85.58;101690.13;21240097;27;20048;-71
2023/08/23 02:29:52;;;;;;;0.73;0.73;;;;;;;20.32;85.32;101699.19;21162659;27;20544;-71
2023/08/23 02:39:54;;;;;;;1.00;0.80;;;;;;;20.28;85.52;101687.78;21242482;27;20050;-71
2023/08/23 02:49:59;;;;;;;1.02;0.93;;;;;;;20.27;85.41;101687.91;21162303;27;20134;-71
2023/08/23 03:00:01;;;;;;;0.90;0.90;;;;;;;20.25;84.97;101684.47;21183802;27;20047;-71
2023/08/23 03:10:03;;;;;;;1.00;0.90;;;;;;;20.24;84.88;101671.97;21218679;27;20043;-71
2023/08/23 03:20:05;;;;;;;0.77;0.77;;;;;;;20.22;84.76;101669.41;21209219;27;20112;-71
2023/08/23 03:30:08;;;;;;;0.80;0.80;;;;;;;20.22;84.93;101676.66;21154524;27;20510;-71
2023/08/23 03:40:11;;;;;;;1.00;0.90;;;;;;;20.20;84.98;101667.81;21153609;27;20075;-71
2023/08/23 03:50:13;;;;;;;0.90;0.90;;;;;;;20.19;84.79;101668.81;21152575;27;20162;-71
2023/08/23 04:00:15;;;;;;;2.92;0.90;;;;;;;20.17;84.87;101671.66;21197966;27;20051;-71
2023/08/23 04:10:17;;;;;;;0.85;0.63;;;;;;;20.16;85.52;101672.66;21204593;27;20563;-71
2023/08/23 04:20:19;;;;;;;1.23;0.98;;;;;;;20.15;85.85;101670.94;21256490;27;20440;-71
2023/08/23 04:30:21;;;;;;;0.85;0.80;;;;;;;20.13;86.26;101665.63;21238171;27;20054;-71
2023/08/23 04:40:25;;;;;;;;;;;;;;;20.11;86.42;101664.91;21221715;27;20126;-71
2023/08/23 04:50:29;;;;;;;1.15;1.02;;;;;;;20.06;86.69;101669.88;21150068;28;19919;-71
2023/08/23 05:00:31;;;;;;;1.33;0.88;;;;;;;20.07;86.98;101676.97;21150060;28;20043;-71
2023/08/23 05:10:33;;;;;;;1.20;1.10;;;;;;;20.07;87.14;101663.47;21167083;28;20051;-71
2023/08/23 05:20:38;;;;;;;1.90;0.98;;;;;;;20.06;87.46;101666.28;21148659;27;20051;-71
2023/08/23 05:30:40;;;;;;;1.10;0.90;;;;;;;20.08;87.83;101664.31;21165304;28;20560;-71
2023/08/23 05:40:47;;;;;;;1.00;0.90;;;;;;;20.05;88.05;101670.84;21145842;28;20055;-71
2023/08/23 05:50:49;;;;;;;2.55;1.20;;;;;;;20.07;88.18;101682.38;21161496;28;20503;-70
2023/08/23 06:00:52;;;;;;;1.80;1.38;;;;;;;20.08;88.52;101681.41;21211917;27;20065;-71
2023/08/23 06:10:54;;;;;;;4.97;2.03;;;;;;;20.13;88.96;101691.84;21144488;27;20138;-70
2023/08/23 06:20:55;;;;;;;2.40;1.60;;;;;;;20.20;89.53;101678.63;21126122;28;20051;-71
2023/08/23 06:30:57;;;;;;;3.95;1.58;;;;;;;20.27;90.04;101680.69;21184723;27;20055;-70
2023/08/23 06:40:59;;;;;;;4.03;1.83;;;;;;;20.34;90.54;101690.94;21188919;27;20059;-70
2023/08/23 06:51:02;;;;;;;3.33;1.75;;;;;;;20.41;90.84;101667.78;21197398;27;20050;-70
2023/08/23 07:01:08;;;;;;;2.25;1.90;;;;;;;20.50;91.41;101685.06;21189445;27;20043;-70
2023/08/23 07:11:10;;;;;;;4.80;2.00;;;;;;;20.58;91.84;101683.41;21188119;27;20047;-70
2023/08/23 07:21:12;;;;;;;3.67;2.03;;;;;;;20.68;92.00;101698.81;21214857;27;20511;-67
2023/08/23 07:31:14;;;;;;;3.63;2.30;;;;;;;20.71;92.16;101712.91;21173804;27;20059;-70
2023/08/23 07:41:18;;;;;;;5.30;2.20;;;;;;;20.79;92.89;101725.81;21170249;27;20059;-69
2023/08/23 07:51:20;;;;;;;3.53;2.42;;;;;;;20.87;93.55;101725.16;21174792;28;20054;-69
2023/08/23 08:01:21;;;;;;;4.65;2.20;;;;;;;20.97;93.77;101725.16;21157195;28;20495;-70
2023/08/23 08:11:23;;;;;;;4.90;1.85;;;;;;;21.12;93.78;101717.53;21174482;27;20089;-69
2023/08/23 08:21:25;;;;;;;2.40;1.50;;;;;;;21.24;93.46;101729.09;21165829;27;20506;-68
2023/08/23 08:31:27;;;;;;;2.95;1.70;;;;;;;21.39;93.08;101721.44;21182185;28;20059;-68
2023/08/23 08:41:29;;;;;;;2.67;1.63;;;;;;;21.52;92.56;101719.31;21189154;27;20074;-68
2023/08/23 08:51:35;;;;;;;3.08;1.40;;;;;;;21.59;91.61;101731.31;21122641;27;20066;-68
2023/08/23 09:01:37;;;;;;;4.18;1.50;;;;;;;21.59;91.28;101733.16;21166583;28;20517;-69
2023/08/23 09:11:39;;;;;;;2.38;1.10;;;;;;;21.61;91.14;101741.16;21168031;27;20047;-69
2023/08/23 09:21:47;;;;;;;2.03;1.10;;;;;;;21.56;90.66;101714.50;21167082;27;20064;-68
2023/08/23 09:31:49;;;;;;;3.97;1.30;;;;;;;21.63;90.59;101725.59;21166895;27;20055;-69
2023/08/23 09:41:50;;;;;;;1.42;1.20;;;;;;;21.62;90.50;101713.06;21173196;27;20055;-68
2023/08/23 09:52:03;;;;;;;2.75;1.00;;;;;;;21.56;90.51;101715.31;21194840;27;20059;-69
2023/08/23 10:02:08;;;;;;;2.22;1.00;;;;;;;21.57;90.44;101698.06;21183116;27;20492;-68
2023/08/23 10:12:11;;;;;;;1.70;1.00;;;;;;;21.59;90.34;101703.38;21180626;27;20492;-69
2023/08/23 10:22:13;;;;;;;1.23;1.08;;;;;;;21.56;90.07;101699.06;21142877;27;20427;-68
2023/08/23 10:32:16;;;;;;;1.50;1.00;;;;;;;21.56;90.16;101700.94;21186465;27;20050;-68
2023/08/23 10:42:18;;;;;;;1.92;1.00;;;;;;;21.49;90.14;101676.25;21175115;27;20056;-68
2023/08/23 10:52:23;;;;;;;1.20;0.90;;;;;;;21.52;89.97;101675.97;21193411;27;20052;-68
2023/08/23 11:02:24;;;;;;;0.73;0.70;;;;;;;21.51;89.87;101679.69;21164206;27;20125;-68
2023/08/23 11:12:26;;;;;;;1.67;0.90;;;;;;;21.50;89.91;101655.47;21165227;27;20047;-68
2023/08/23 11:22:28;;;;;;;2.08;0.98;;;;;;;21.52;89.97;101653.47;21145236;27;20127;-68
2023/08/23 11:32:31;;;;;;;2.10;1.05;;;;;;;21.56;90.08;101650.31;21158002;27;20092;-67
2023/08/23 11:42:33;;;;;;;1.45;1.10;;;;;;;21.58;89.82;101634.75;21153184;27;20051;-67
2023/08/23 11:52:35;;;;;;;2.45;1.20;;;;;;;21.60;89.96;101640.06;21162876;28;20097;-67
2023/08/23 12:02:37;;;;;;;1.85;1.05;;;;;;;21.61;89.80;101635.47;21145124;28;20123;-68
2023/08/23 12:12:40;;;;;;;2.28;1.10;;;;;;;21.69;90.15;101636.50;21162376;27;20107;-67
2023/08/23 12:22:45;;;;;;;0.80;0.80;;;;;;;21.75;90.01;101640.50;21171465;27;20051;-67
2023/08/23 12:32:47;;;;;;;0.88;0.82;;;;;;;21.75;89.68;101647.78;21163189;27;20055;-68
2023/08/23 12:42:49;;;;;;;1.25;0.90;;;;;;;21.77;89.52;101640.34;21162729;27;20100;-68
2023/08/23 12:52:51;;;;;;;2.28;0.98;;;;;;;21.77;89.25;101634.94;21163044;27;20051;-68
2023/08/23 13:02:52;;;;;;;1.73;0.85;;;;;;;21.79;88.67;101636.50;21180625;27;20052;-68
2023/08/23 13:12:54;;;;;;;1.52;1.10;;;;;;;21.79;88.56;101638.34;21163577;27;20043;-68
2023/08/23 13:22:58;;;;;;;1.67;0.90;;;;;;;21.78;88.68;101642.94;21159568;27;20051;-68
2023/08/23 13:33:00;;;;;;;2.10;1.10;;;;;;;21.78;88.71;101623.09;21167019;27;20514;-68
2023/08/23 13:43:02;;;;;;;2.00;1.20;;;;;;;21.76;88.87;101625.09;21164400;27;20121;-70
2023/08/23 13:53:17;;;;;;;2.33;1.23;;;;;;;21.75;89.07;101620.66;21164232;27;20690;-69
2023/08/23 14:03:19;;;;;;;2.22;1.20;;;;;;;21.76;89.09;101597.97;21143994;27;20510;-69
2023/08/23 14:13:20;;;;;;;1.50;0.80;;;;;;;21.80;89.15;101602.13;21159526;27;20056;-69
2023/08/23 14:23:22;;;;;;;1.75;1.10;;;;;;;21.80;88.55;101581.31;21170066;27;20047;-69
2023/08/23 14:33:24;;;;;;;3.28;1.42;;;;;;;21.78;88.10;101579.72;21185028;27;20055;-69
2023/08/23 14:43:26;;;;;;;2.35;1.20;;;;;;;21.79;87.79;101595.84;21171752;27;20075;-68
2023/08/23 14:53:28;;;;;;;1.80;1.25;;;;;;;21.80;87.23;101591.28;21159937;27;20051;-66
2023/08/23 15:03:29;;;;;;;2.13;1.50;;;;;;;21.76;87.41;101588.00;21149878;27;20055;-72
2023/08/23 15:13:31;;;;;;;3.28;1.25;;;;;;;21.76;86.94;101590.72;21166352;27;20067;-68
2023/08/23 15:23:33;;;;;;;3.28;1.58;;;;;;;21.78;89.10;101587.84;21157555;27;20487;-63
2023/08/23 15:33:35;;;;;;;2.17;1.30;;;;;;;21.80;90.43;101577.72;21157325;27;20063;-65
2023/08/23 15:43:38;;;;;;;1.58;1.13;;;;;;;21.82;90.60;101584.72;21177832;27;20054;-66
2023/08/23 15:53:40;;;;;;;5.35;1.85;;;;;;;21.85;91.92;101584.44;21174935;28;20047;-67
2023/08/23 16:03:42;;;;;;;3.33;1.70;;;;;;;21.87;92.46;101581.56;21176488;28;20044;-66
2023/08/23 16:13:44;;;;;;;4.90;2.22;;;;;;;21.91;97.06;101576.72;21190092;28;20043;-67
2023/08/23 16:23:45;;;;;;;3.80;1.45;;;;;;;21.93;98.07;101580.13;21187966;28;20142;-65
2023/08/23 16:33:47;;;;;;;2.67;1.80;;;;;;;21.93;97.41;101574.69;21174226;28;20095;-66
2023/08/23 16:43:49;;;;;;;3.13;1.50;;;;;;;21.93;96.53;101589.13;21144733;28;20097;-66
2023/08/23 16:53:52;;;;;;;2.97;1.63;;;;;;;21.87;96.46;101578.84;21175847;27;20047;-66
2023/08/23 17:03:54;;;;;;;2.77;1.30;;;;;;;21.79;96.42;101574.16;21198727;27;20051;-66
2023/08/23 17:13:56;;;;;;;3.47;1.70;;;;;;;21.77;95.93;101581.59;21162434;27;20163;-66
2023/08/23 17:23:58;;;;;;;4.90;1.50;;;;;;;21.78;96.11;101587.84;21152476;27;20051;-66
2023/08/23 17:33:59;;;;;;;3.05;1.27;;;;;;;21.78;95.98;101594.16;21182473;27;20056;-66
2023/08/23 17:44:01;;;;;;;1.75;1.30;;;;;;;21.78;95.86;101609.53;21171945;27;20051;-65
2023/08/23 17:54:04;;;;;;;2.92;1.15;;;;;;;21.72;95.87;101605.56;21163131;27;20631;-66
2023/08/23 18:04:06;;;;;;;3.33;1.63;;;;;;;21.73;96.16;101618.13;21160879;27;20685;-66
2023/08/23 18:14:08;;;;;;;1.92;1.33;;;;;;;21.68;96.04;101623.97;21154345;27;20093;-66
2023/08/23 18:24:11;;;;;;;1.77;1.05;;;;;;;21.66;95.85;101641.38;21172209;27;20047;-66
2023/08/23 18:34:13;;;;;;;1.70;1.10;;;;;;;21.64;95.95;101644.22;21170738;27;20058;-66
2023/08/23 18:44:15;;;;;;;2.40;1.10;;;;;;;21.62;95.88;101648.03;21163048;27;20491;-65
2023/08/23 18:54:16;;;;;;;3.88;1.40;;;;;;;21.57;95.39;101659.31;21172253;27;20074;-65
2023/08/23 19:04:18;;;;;;;1.83;1.30;;;;;;;21.40;95.73;101634.63;21179247;27;21568;-66
2023/08/23 19:14:20;;;;;;;2.95;1.20;;;;;;;21.53;96.02;101671.44;21189596;27;20051;-66
2023/08/23 19:24:27;;;;;;;1.80;0.95;;;;;;;21.49;96.26;101662.72;21151651;27;20122;-67
2023/08/23 19:34:33;;;;;;;2.53;1.52;;;;;;;21.49;97.58;101676.25;21141481;27;20428;-66
2023/08/23 19:44:35;;;;;;;2.42;1.40;;;;;;;21.42;98.65;101672.41;21154977;28;20555;-66
2023/08/23 19:54:38;;;;;;;3.25;1.30;;;;;;;21.37;98.77;101675.53;21139878;27;20106;-66
2023/08/23 20:04:40;;;;;;;2.08;1.30;;;;;;;21.33;98.80;101673.25;21149314;28;20516;-66
2023/08/23 20:14:42;;;;;;;2.33;1.50;;;;;;;21.27;98.55;101667.41;21153110;28;20061;-66
2023/08/23 20:24:48;;;;;;;2.38;1.00;;;;;;;21.24;98.49;101673.09;21143227;28;20047;-66
2023/08/23 20:34:49;;;;;;;1.90;1.00;;;;;;;21.21;98.32;101673.41;21164839;27;20055;-66
2023/08/23 20:44:51;;;;;;;2.10;1.38;;;;;;;21.18;98.14;101679.06;21170290;27;20043;-66
2023/08/23 20:54:53;;;;;;;2.15;0.90;;;;;;;21.16;97.98;101678.34;21156716;28;20054;-66
2023/08/23 21:04:55;;;;;;;4.03;1.20;;;;;;;21.14;97.58;101677.63;21174499;27;20052;-67
2023/08/23 21:14:56;;;;;;;2.13;0.93;;;;;;;21.11;97.10;101661.66;21164862;27;20108;-66
2023/08/23 21:24:58;;;;;;;2.38;0.95;;;;;;;20.97;96.85;101638.53;21203045;27;20048;-66
2023/08/23 21:35:00;;;;;;;4.35;1.00;;;;;;;21.08;96.70;101661.94;21205577;27;20112;-66
2023/08/23 21:45:02;;;;;;;1.70;0.80;;;;;;;21.05;96.55;101652.25;21180709;27;20062;-66
2023/08/23 21:55:04;;;;;;;1.00;0.90;;;;;;;21.03;96.29;101638.00;21165365;28;20050;-66
2023/08/23 22:05:06;;;;;;;1.33;0.95;;;;;;;21.01;96.16;101645.41;21161924;28;20138;-66
2023/08/23 22:15:08;;;;;;;1.35;1.10;;;;;;;20.97;95.78;101644.81;21163039;28;20082;-66
2023/08/23 22:25:10;;;;;;;1.95;0.98;;;;;;;20.91;95.50;101645.38;21161872;28;20048;-66
2023/08/23 22:35:12;;;;;;;1.42;0.85;;;;;;;20.92;95.09;101649.81;21161525;28;20048;-66
2023/08/23 22:45:14;;;;;;;1.63;0.93;;;;;;;20.91;94.79;101650.81;21160128;28;20059;-66
2023/08/23 22:55:16;;;;;;;1.42;1.00;;;;;;;20.88;94.48;101652.91;21159005;28;20051;-66
2023/08/23 23:05:19;;;;;;;1.70;0.85;;;;;;;20.82;94.35;101646.22;21160802;28;20529;-66
2023/08/23 23:15:21;;;;;;;0.90;0.80;;;;;;;20.78;93.98;101637.47;21158332;28;20517;-66
2023/08/23 23:25:24;;;;;;;1.17;0.80;;;;;;;20.81;93.50;101656.19;21157516;28;20098;-66
2023/08/23 23:35:26;;;;;;;1.65;0.95;;;;;;;20.77;93.22;101649.28;21157415;28;20059;-66
2023/08/23 23:45:35;;;;;;;1.33;0.80;;;;;;;20.78;93.12;101631.22;21155902;28;20052;-66
2023/08/23 23:55:37;;;;;;;1.63;1.00;;;;;;;20.77;92.86;101626.78;21155766;28;20123;-66
